createdAt,value
2022-10-23T00:01:01.756Z,12.89
2022-10-23T00:03:29.648Z,12.89
2022-10-23T00:05:58.851Z,12.98
2022-10-23T00:08:26.818Z,12.97
2022-10-23T00:10:54.715Z,13.00
2022-10-23T00:13:22.710Z,12.96
2022-10-23T00:15:53.595Z,12.96
2022-10-23T00:18:21.477Z,12.94
2022-10-23T00:20:49.353Z,12.99
2022-10-23T00:23:18.889Z,13.03
2022-10-23T00:25:46.788Z,13.00
2022-10-23T00:28:14.702Z,13.05
2022-10-23T00:30:42.659Z,13.19
2022-10-23T00:33:11.110Z,13.19
2022-10-23T00:35:40.858Z,13.22
2022-10-23T00:38:08.842Z,13.17
2022-10-23T00:40:38.628Z,13.19
2022-10-23T00:43:08.218Z,13.04
2022-10-23T00:45:36.139Z,13.17
2022-10-23T00:48:04.892Z,13.18
2022-10-23T00:50:34.401Z,13.19
2022-10-23T00:53:05.166Z,13.24
2022-10-23T00:55:34.333Z,13.17
2022-10-23T00:58:04.146Z,13.22
2022-10-23T01:00:42.733Z,13.14
2022-10-23T01:03:10.711Z,13.24
2022-10-23T01:05:45.807Z,13.20
2022-10-23T01:08:21.202Z,13.22
2022-10-23T01:10:55.280Z,13.20
2022-10-23T01:13:36.310Z,13.25
2022-10-23T01:16:12.905Z,13.19
2022-10-23T01:18:45.608Z,13.15
2022-10-23T01:21:19.479Z,13.17
2022-10-23T01:24:08.869Z,13.11
2022-10-23T01:26:48.642Z,13.18
2022-10-23T01:29:23.002Z,13.20
2022-10-23T01:31:57.437Z,13.16
2022-10-23T01:34:31.768Z,13.15
2022-10-23T01:37:03.970Z,13.11
2022-10-23T01:39:36.944Z,13.24
2022-10-23T01:42:09.649Z,13.13
2022-10-23T01:44:42.940Z,13.07
2022-10-23T01:47:14.313Z,13.10
2022-10-23T01:50:02.080Z,13.08
2022-10-23T01:52:30.419Z,13.03
2022-10-23T01:55:01.886Z,13.00
2022-10-23T01:57:35.231Z,13.01
2022-10-23T02:00:08.520Z,12.99
2022-10-23T02:02:53.448Z,12.95
2022-10-23T02:05:27.480Z,12.94
2022-10-23T02:07:57.215Z,12.89
2022-10-23T02:10:30.941Z,12.88
2022-10-23T02:13:04.376Z,12.88
2022-10-23T02:15:37.357Z,12.94
2022-10-23T02:18:10.642Z,12.90
2022-10-23T02:20:41.683Z,12.97
2022-10-23T02:23:18.709Z,12.94
2022-10-23T02:25:54.079Z,12.99
2022-10-23T02:28:27.540Z,13.00
2022-10-23T02:31:03.590Z,13.02
2022-10-23T02:33:33.813Z,13.08
2022-10-23T02:36:01.724Z,13.04
2022-10-23T02:38:36.715Z,13.09
2022-10-23T02:41:18.919Z,13.13
2022-10-23T02:43:58.245Z,13.07
2022-10-23T02:46:35.912Z,13.00
2022-10-23T02:49:11.624Z,13.10
2022-10-23T02:51:54.010Z,13.12
2022-10-23T02:54:41.128Z,13.13
2022-10-23T02:57:17.186Z,13.13
2022-10-23T02:59:53.490Z,13.10
2022-10-23T03:02:26.719Z,13.12
2022-10-23T03:04:56.910Z,13.07
2022-10-23T03:07:27.441Z,13.05
2022-10-23T03:10:03.379Z,12.99
2022-10-23T03:12:32.975Z,12.86
2022-10-23T03:15:00.943Z,12.87
2022-10-23T03:17:30.218Z,12.85
2022-10-23T03:20:00.906Z,12.84
2022-10-23T03:22:28.846Z,12.83
2022-10-23T03:24:57.316Z,12.91
2022-10-23T03:27:25.331Z,12.89
2022-10-23T03:29:55.949Z,12.91
2022-10-23T03:32:24.073Z,12.76
2022-10-23T03:34:53.350Z,12.83
2022-10-23T03:37:23.178Z,12.69
2022-10-23T03:39:51.896Z,12.72
2022-10-23T03:42:19.920Z,12.75
2022-10-23T03:44:47.906Z,12.76
2022-10-23T03:47:15.834Z,12.68
2022-10-23T03:49:43.744Z,12.67
2022-10-23T03:52:13.165Z,12.65
2022-10-23T03:54:41.116Z,12.49
2022-10-23T03:57:09.031Z,12.54
2022-10-23T03:59:37.044Z,12.55
2022-10-23T04:02:07.006Z,12.48
2022-10-23T04:04:35.190Z,12.47
2022-10-23T04:07:03.172Z,12.48
2022-10-23T04:09:32.476Z,12.53
2022-10-23T04:12:00.406Z,12.45
2022-10-23T04:14:29.810Z,12.49
2022-10-23T04:16:57.794Z,12.47
2022-10-23T04:19:25.762Z,12.39
2022-10-23T04:21:57.165Z,12.33
2022-10-23T04:24:25.996Z,12.32
2022-10-23T04:26:55.361Z,12.32
2022-10-23T04:29:24.597Z,12.31
2022-10-23T04:31:52.777Z,12.31
2022-10-23T04:34:20.874Z,12.23
2022-10-23T04:36:49.020Z,12.24
2022-10-23T04:39:18.225Z,12.21
2022-10-23T04:41:46.243Z,12.19
2022-10-23T04:44:15.714Z,12.19
2022-10-23T04:46:44.006Z,12.23
2022-10-23T04:49:11.964Z,12.18
2022-10-23T04:51:58.491Z,12.17
2022-10-23T04:54:50.910Z,12.21
2022-10-23T04:57:30.871Z,12.15
2022-10-23T05:00:09.760Z,12.19
2022-10-23T05:02:45.154Z,12.17
2022-10-23T05:05:17.626Z,12.20
2022-10-23T05:08:06.015Z,12.16
2022-10-23T05:10:57.100Z,12.12
2022-10-23T05:13:24.989Z,12.11
2022-10-23T05:15:54.988Z,12.17
2022-10-23T05:18:27.357Z,12.18
2022-10-23T05:21:00.323Z,12.24
2022-10-23T05:23:31.138Z,12.19
2022-10-23T05:26:03.197Z,12.19
2022-10-23T05:28:32.369Z,12.20
2022-10-23T05:31:04.466Z,12.18
2022-10-23T05:33:33.843Z,12.15
2022-10-23T05:36:02.609Z,12.09
2022-10-23T05:38:34.574Z,12.15
2022-10-23T05:41:07.521Z,12.15
2022-10-23T05:43:35.544Z,12.16
2022-10-23T05:46:19.942Z,12.12
2022-10-23T05:49:26.706Z,12.16
2022-10-23T05:52:29.805Z,12.09
2022-10-23T05:55:17.033Z,12.13
2022-10-23T05:58:03.820Z,12.13
2022-10-23T06:00:50.229Z,12.09
2022-10-23T06:03:45.362Z,12.10
2022-10-23T06:06:14.030Z,12.14
2022-10-23T06:08:47.827Z,12.12
2022-10-23T06:11:16.462Z,12.17
2022-10-23T06:13:52.186Z,12.15
2022-10-23T06:16:25.439Z,12.15
2022-10-23T06:18:55.194Z,12.18
2022-10-23T06:21:23.133Z,12.20
2022-10-23T06:23:51.919Z,12.18
2022-10-23T06:26:38.027Z,12.30
2022-10-23T06:29:09.874Z,12.32
2022-10-23T06:31:38.918Z,12.28
2022-10-23T06:34:11.777Z,12.29
2022-10-23T06:36:40.044Z,12.32
2022-10-23T06:39:29.763Z,12.36
2022-10-23T06:42:20.257Z,12.33
2022-10-23T06:44:57.209Z,12.38
2022-10-23T06:47:40.217Z,12.51
2022-10-23T06:50:25.930Z,12.52
2022-10-23T06:52:54.618Z,12.56
2022-10-23T06:55:23.533Z,12.59
2022-10-23T06:57:52.340Z,12.67
2022-10-23T07:00:21.506Z,12.69
2022-10-23T07:02:54.179Z,12.78
2022-10-23T07:05:24.983Z,12.84
2022-10-23T07:07:53.360Z,12.97
2022-10-23T07:10:26.362Z,12.98
2022-10-23T07:13:01.080Z,13.11
2022-10-23T07:15:49.572Z,13.11
2022-10-23T07:18:23.822Z,13.07
2022-10-23T07:21:12.127Z,13.10
2022-10-23T07:23:41.208Z,13.20
2022-10-23T07:26:10.589Z,13.31
2022-10-23T07:28:38.902Z,13.51
2022-10-23T07:31:07.108Z,13.38
2022-10-23T07:34:04.138Z,13.40
2022-10-23T07:36:33.452Z,13.37
2022-10-23T07:39:01.535Z,13.47
2022-10-23T07:41:29.553Z,13.57
2022-10-23T07:43:57.545Z,13.75
2022-10-23T07:46:25.479Z,13.71
2022-10-23T07:48:53.810Z,13.91
2022-10-23T07:51:22.780Z,13.78
2022-10-23T07:53:58.045Z,14.09
2022-10-23T07:56:49.018Z,14.00
2022-10-23T07:59:38.094Z,14.06
2022-10-23T08:02:13.046Z,14.12
2022-10-23T08:04:42.525Z,14.37
2022-10-23T08:07:36.544Z,14.41
2022-10-23T08:10:07.164Z,14.66
2022-10-23T08:12:38.246Z,14.74
2022-10-23T08:15:07.202Z,14.65
2022-10-23T08:17:47.299Z,14.87
2022-10-23T08:20:18.531Z,15.08
2022-10-23T08:22:47.217Z,15.24
2022-10-23T08:25:25.000Z,15.55
2022-10-23T08:27:53.861Z,15.80
2022-10-23T08:30:21.956Z,15.90
2022-10-23T08:32:49.924Z,16.09
2022-10-23T08:35:18.146Z,16.19
2022-10-23T08:37:46.193Z,16.23
2022-10-23T08:40:16.782Z,16.50
2022-10-23T08:43:09.250Z,16.30
2022-10-23T08:45:45.970Z,16.42
2022-10-23T08:48:38.777Z,16.73
2022-10-23T08:51:43.746Z,16.64
2022-10-23T08:54:15.858Z,16.64
2022-10-23T08:56:48.166Z,16.67
2022-10-23T08:59:26.238Z,16.79
2022-10-23T09:01:59.254Z,17.18
2022-10-23T09:04:27.502Z,17.12
2022-10-23T09:07:02.220Z,17.30
2022-10-23T09:09:49.737Z,17.56
2022-10-23T09:12:21.613Z,17.57
2022-10-23T09:15:17.301Z,17.57
2022-10-23T09:17:46.272Z,17.65
2022-10-23T09:20:20.386Z,17.94
2022-10-23T09:22:49.968Z,18.26
2022-10-23T09:25:20.831Z,18.34
2022-10-23T09:27:53.291Z,18.51
2022-10-23T09:30:33.741Z,18.77
2022-10-23T09:33:13.191Z,18.73
2022-10-23T09:35:53.594Z,18.82
2022-10-23T09:38:28.637Z,19.15
2022-10-23T09:40:56.959Z,19.01
2022-10-23T09:43:28.068Z,18.81
2022-10-23T09:46:06.158Z,18.70
2022-10-23T09:48:35.921Z,18.46
2022-10-23T09:51:05.811Z,18.46
2022-10-23T09:53:36.545Z,18.42
2022-10-23T09:56:07.840Z,18.60
2022-10-23T09:58:39.176Z,18.71
2022-10-23T10:01:23.837Z,18.86
2022-10-23T10:03:54.815Z,18.94
2022-10-23T10:06:28.262Z,18.76
2022-10-23T10:08:58.615Z,18.88
2022-10-23T10:11:32.303Z,18.83
2022-10-23T10:14:14.812Z,18.88
2022-10-23T10:16:52.368Z,18.78
2022-10-23T10:19:32.541Z,18.79
2022-10-23T10:22:08.842Z,18.98
2022-10-23T10:24:43.305Z,18.80
2022-10-23T10:27:20.836Z,18.72
2022-10-23T10:30:02.743Z,18.55
2022-10-23T10:32:40.719Z,18.70
2022-10-23T10:35:23.578Z,18.77
2022-10-23T10:38:10.180Z,19.27
2022-10-23T10:40:42.547Z,19.68
2022-10-23T10:43:21.741Z,19.64
2022-10-23T10:45:49.874Z,19.94
2022-10-23T10:48:33.565Z,19.92
2022-10-23T10:51:27.959Z,20.04
2022-10-23T10:54:20.179Z,20.32
2022-10-23T10:56:49.509Z,20.74
2022-10-23T10:59:24.300Z,20.91
2022-10-23T11:01:59.040Z,20.38
2022-10-23T11:04:38.001Z,20.54
2022-10-23T11:07:12.539Z,20.35
2022-10-23T11:09:41.186Z,20.96
2022-10-23T11:12:18.757Z,21.08
2022-10-23T11:14:46.932Z,20.70
2022-10-23T11:17:19.687Z,20.69
2022-10-23T11:19:57.632Z,20.98
2022-10-23T11:22:33.964Z,21.43
2022-10-23T11:25:22.486Z,21.92
2022-10-23T11:28:08.546Z,21.89
2022-10-23T11:30:49.636Z,22.06
2022-10-23T11:34:03.192Z,22.05
2022-10-23T11:36:43.917Z,21.32
2022-10-23T11:39:23.494Z,21.28
2022-10-23T11:41:54.606Z,21.46
2022-10-23T11:44:41.390Z,21.81
2022-10-23T11:47:28.311Z,21.69
2022-10-23T11:50:14.301Z,21.77
2022-10-23T11:53:13.076Z,22.02
2022-10-23T11:55:58.202Z,22.10
2022-10-23T11:58:31.545Z,21.96
2022-10-23T12:01:05.279Z,21.77
2022-10-23T12:03:43.527Z,21.75
2022-10-23T12:06:22.031Z,22.12
2022-10-23T12:08:56.009Z,22.36
2022-10-23T12:11:27.755Z,22.84
2022-10-23T12:13:56.138Z,23.39
2022-10-23T12:16:34.922Z,23.25
2022-10-23T12:19:18.848Z,22.93
2022-10-23T12:21:47.715Z,22.99
2022-10-23T12:24:39.993Z,23.45
2022-10-23T12:27:19.812Z,22.86
2022-10-23T12:30:10.655Z,22.61
2022-10-23T12:32:54.249Z,22.18
2022-10-23T12:35:56.536Z,21.87
2022-10-23T12:38:26.797Z,21.82
2022-10-23T12:41:01.571Z,21.94
2022-10-23T12:43:32.394Z,22.02
2022-10-23T12:46:04.903Z,22.10
2022-10-23T12:48:34.888Z,21.81
2022-10-23T12:51:02.899Z,21.60
2022-10-23T12:53:30.835Z,21.57
2022-10-23T12:56:04.138Z,21.47
2022-10-23T12:58:34.154Z,21.50
2022-10-23T13:01:07.005Z,21.21
2022-10-23T13:03:36.238Z,21.12
2022-10-23T13:06:04.657Z,20.99
2022-10-23T13:08:35.734Z,20.91
2022-10-23T13:11:26.795Z,20.77
2022-10-23T13:13:57.390Z,20.85
2022-10-23T13:16:26.705Z,20.90
2022-10-23T13:18:54.684Z,20.87
2022-10-23T13:21:24.872Z,20.99
2022-10-23T13:23:53.707Z,20.87
2022-10-23T13:26:30.527Z,20.84
2022-10-23T13:28:59.183Z,20.71
2022-10-23T13:31:30.772Z,20.72
2022-10-23T13:34:17.776Z,20.86
2022-10-23T13:36:55.520Z,20.72
2022-10-23T13:39:25.590Z,20.57
2022-10-23T13:41:54.961Z,20.50
2022-10-23T13:44:26.291Z,20.52
2022-10-23T13:46:54.951Z,20.62
2022-10-23T13:49:23.120Z,20.49
2022-10-23T13:51:53.360Z,20.54
2022-10-23T13:54:23.166Z,20.56
2022-10-23T13:56:51.895Z,20.52
2022-10-23T13:59:21.354Z,20.60
2022-10-23T14:01:50.695Z,20.54
2022-10-23T14:04:19.740Z,20.41
2022-10-23T14:06:48.173Z,20.36
2022-10-23T14:09:18.017Z,20.42
2022-10-23T14:11:46.086Z,20.30
2022-10-23T14:14:14.040Z,20.00
2022-10-23T14:16:43.251Z,20.22
2022-10-23T14:19:12.109Z,20.18
2022-10-23T14:21:40.005Z,19.94
2022-10-23T14:24:08.254Z,20.01
2022-10-23T14:26:36.230Z,20.03
2022-10-23T14:29:10.188Z,20.00
2022-10-23T14:31:39.396Z,20.09
2022-10-23T14:34:13.468Z,19.91
2022-10-23T14:36:49.652Z,20.03
2022-10-23T14:39:18.112Z,19.95
2022-10-23T14:41:46.278Z,19.99
2022-10-23T14:44:14.555Z,20.01
2022-10-23T14:46:42.678Z,19.99
2022-10-23T14:49:11.992Z,19.93
2022-10-23T14:51:39.934Z,19.69
2022-10-23T14:54:09.136Z,19.76
2022-10-23T14:56:39.960Z,19.67
2022-10-23T14:59:09.172Z,19.72
2022-10-23T15:01:43.692Z,19.59
2022-10-23T15:04:17.067Z,19.56
2022-10-23T15:06:46.331Z,19.61
2022-10-23T15:09:14.861Z,19.57
2022-10-23T15:11:43.490Z,19.52
2022-10-23T15:14:11.506Z,19.31
2022-10-23T15:16:42.072Z,19.40
2022-10-23T15:19:13.714Z,19.62
2022-10-23T15:21:46.898Z,19.45
2022-10-23T15:24:15.119Z,19.43
2022-10-23T15:26:43.345Z,19.35
2022-10-23T15:29:12.389Z,19.29
2022-10-23T15:31:50.181Z,19.26
2022-10-23T15:34:19.894Z,19.18
2022-10-23T15:36:50.443Z,19.13
2022-10-23T15:39:21.567Z,19.17
2022-10-23T15:41:52.312Z,19.05
2022-10-23T15:44:22.331Z,19.00
2022-10-23T15:46:50.596Z,19.07
2022-10-23T15:49:19.247Z,18.98
2022-10-23T15:51:49.306Z,18.87
2022-10-23T15:54:19.616Z,18.79
2022-10-23T15:56:49.756Z,18.65
2022-10-23T15:59:19.931Z,18.57
2022-10-23T16:01:48.494Z,18.43
2022-10-23T16:04:19.572Z,18.28
2022-10-23T16:06:49.267Z,18.32
2022-10-23T16:09:17.915Z,18.27
2022-10-23T16:11:46.170Z,18.08
2022-10-23T16:14:15.897Z,17.93
2022-10-23T16:16:44.295Z,17.98
2022-10-23T16:19:12.970Z,17.97
2022-10-23T16:21:40.979Z,18.01
2022-10-23T16:24:11.030Z,18.08
2022-10-23T16:26:39.316Z,18.07
2022-10-23T16:29:09.356Z,18.05
2022-10-23T16:31:37.488Z,18.10
2022-10-23T16:34:06.595Z,18.15
2022-10-23T16:36:35.298Z,18.01
2022-10-23T16:39:07.145Z,18.02
2022-10-23T16:41:55.259Z,17.97
2022-10-23T16:44:27.209Z,17.94
2022-10-23T16:46:59.787Z,17.88
2022-10-23T16:49:29.754Z,17.86
2022-10-23T16:51:57.825Z,17.85
2022-10-23T16:54:25.875Z,17.89
2022-10-23T16:56:55.251Z,17.88
2022-10-23T16:59:23.205Z,17.71
2022-10-23T17:01:51.282Z,17.66
2022-10-23T17:04:19.745Z,17.58
2022-10-23T17:06:47.718Z,17.51
2022-10-23T17:09:15.721Z,17.42
2022-10-23T17:11:45.468Z,17.37
2022-10-23T17:14:17.396Z,17.43
2022-10-23T17:16:47.675Z,17.38
2022-10-23T17:19:43.313Z,17.36
2022-10-23T17:22:10.324Z,17.30
2022-10-23T17:24:38.583Z,17.30
2022-10-23T17:27:06.566Z,17.23
2022-10-23T17:29:36.517Z,17.18
2022-10-23T17:32:04.883Z,17.20
2022-10-23T17:34:32.808Z,17.38
2022-10-23T17:37:00.770Z,17.42
2022-10-23T17:39:30.076Z,17.53
2022-10-23T17:41:58.669Z,17.59
2022-10-23T17:44:26.702Z,17.72
2022-10-23T17:46:56.589Z,17.81
2022-10-23T17:49:26.177Z,17.74
2022-10-23T17:51:56.310Z,17.76
2022-10-23T17:54:26.010Z,17.77
2022-10-23T17:56:53.998Z,17.85
2022-10-23T17:59:21.994Z,17.71
2022-10-23T18:01:50.302Z,17.75
2022-10-23T18:04:21.289Z,17.86
2022-10-23T18:06:52.436Z,17.82
2022-10-23T18:09:20.976Z,17.69
2022-10-23T18:11:49.295Z,17.76
2022-10-23T18:14:18.322Z,17.75
2022-10-23T18:16:46.763Z,17.59
2022-10-23T18:19:14.881Z,17.63
2022-10-23T18:21:44.178Z,17.49
2022-10-23T18:24:12.587Z,17.47
2022-10-23T18:26:42.286Z,17.48
2022-10-23T18:29:12.036Z,17.41
2022-10-23T18:31:40.277Z,17.39
2022-10-23T18:34:12.915Z,17.29
2022-10-23T18:36:41.581Z,17.19
2022-10-23T18:39:14.268Z,17.14
2022-10-23T18:41:44.847Z,17.05
2022-10-23T18:44:16.838Z,16.93
2022-10-23T18:46:45.395Z,16.84
2022-10-23T18:49:14.196Z,16.78
2022-10-23T18:51:42.233Z,16.66
2022-10-23T18:54:13.720Z,16.60
2022-10-23T18:56:42.276Z,16.58
2022-10-23T18:59:14.056Z,16.48
2022-10-23T19:01:42.237Z,16.35
2022-10-23T19:04:12.566Z,16.32
2022-10-23T19:06:40.766Z,16.32
2022-10-23T19:09:13.651Z,16.33
2022-10-23T19:11:42.185Z,16.36
2022-10-23T19:14:10.664Z,16.32
2022-10-23T19:16:40.857Z,16.30
2022-10-23T19:19:16.402Z,16.33
2022-10-23T19:21:45.450Z,16.22
2022-10-23T19:24:19.195Z,16.34
2022-10-23T19:26:47.916Z,16.23
2022-10-23T19:29:19.611Z,16.16
2022-10-23T19:31:49.861Z,16.17
2022-10-23T19:34:19.974Z,16.17
2022-10-23T19:36:48.487Z,16.21
2022-10-23T19:39:18.877Z,16.20
2022-10-23T19:41:46.826Z,15.98
2022-10-23T19:44:15.812Z,16.19
2022-10-23T19:46:44.502Z,16.16
2022-10-23T19:49:12.786Z,16.30
2022-10-23T19:51:40.929Z,16.02
2022-10-23T19:54:10.546Z,15.81
2022-10-23T19:56:40.097Z,15.64
2022-10-23T19:59:08.489Z,15.61
2022-10-23T20:01:36.482Z,15.62
2022-10-23T20:04:04.602Z,15.66
2022-10-23T20:06:35.393Z,15.61
2022-10-23T20:09:07.928Z,15.58
2022-10-23T20:11:37.249Z,15.55
2022-10-23T20:14:07.132Z,15.49
2022-10-23T20:16:37.443Z,15.53
2022-10-23T20:19:07.247Z,15.38
2022-10-23T20:21:36.956Z,15.47
2022-10-23T20:24:05.475Z,15.54
2022-10-23T20:26:33.763Z,15.31
2022-10-23T20:29:01.729Z,15.28
2022-10-23T20:31:31.131Z,15.23
2022-10-23T20:33:59.210Z,15.32
2022-10-23T20:36:28.821Z,15.30
2022-10-23T20:38:57.947Z,15.19
2022-10-23T20:41:28.446Z,15.21
2022-10-23T20:43:57.044Z,15.33
2022-10-23T20:46:25.200Z,15.26
2022-10-23T20:48:54.695Z,15.16
2022-10-23T20:51:24.308Z,15.25
2022-10-23T20:53:53.064Z,15.26
2022-10-23T20:56:24.227Z,15.23
2022-10-23T20:58:52.198Z,15.25
2022-10-23T21:01:20.248Z,15.29
2022-10-23T21:03:51.237Z,15.12
2022-10-23T21:06:21.089Z,15.31
2022-10-23T21:08:49.063Z,15.30
2022-10-23T21:11:18.505Z,15.29
2022-10-23T21:13:46.441Z,15.21
2022-10-23T21:16:15.592Z,15.13
2022-10-23T21:18:46.489Z,15.07
2022-10-23T21:21:16.998Z,15.10
2022-10-23T21:23:46.983Z,15.10
2022-10-23T21:26:16.652Z,15.11
2022-10-23T21:28:55.672Z,15.05
2022-10-23T21:31:34.426Z,15.06
2022-10-23T21:34:02.606Z,15.03
2022-10-23T21:36:34.018Z,14.99
2022-10-23T21:39:04.781Z,15.04
2022-10-23T21:41:34.829Z,15.01
2022-10-23T21:44:04.468Z,14.89
2022-10-23T21:46:34.108Z,14.83
2022-10-23T21:49:02.472Z,14.82
2022-10-23T21:51:32.284Z,14.77
2022-10-23T21:54:00.516Z,14.75
2022-10-23T21:56:32.647Z,14.79
2022-10-23T21:59:02.264Z,14.74
2022-10-23T22:01:30.948Z,14.71
2022-10-23T22:03:59.042Z,14.77
2022-10-23T22:06:29.339Z,14.78
2022-10-23T22:08:59.225Z,14.75
2022-10-23T22:11:28.052Z,14.79
2022-10-23T22:13:57.783Z,14.80
2022-10-23T22:16:25.816Z,14.82
2022-10-23T22:18:54.033Z,14.77
2022-10-23T22:21:23.925Z,14.81
2022-10-23T22:23:52.701Z,14.76
2022-10-23T22:26:24.085Z,14.64
2022-10-23T22:28:54.050Z,14.70
2022-10-23T22:31:25.633Z,14.72
2022-10-23T22:33:54.328Z,14.56
2022-10-23T22:36:22.436Z,14.66
2022-10-23T22:38:50.514Z,14.60
2022-10-23T22:41:19.010Z,14.53
2022-10-23T22:43:47.033Z,14.62
2022-10-23T22:46:16.628Z,14.51
2022-10-23T22:48:46.824Z,14.64
2022-10-23T22:51:16.629Z,14.73
2022-10-23T22:53:45.040Z,14.68
2022-10-23T22:56:15.448Z,14.61
2022-10-23T22:58:43.576Z,14.60
2022-10-23T23:01:15.553Z,14.56
2022-10-23T23:03:45.776Z,14.46
2022-10-23T23:06:13.984Z,14.51
2022-10-23T23:08:42.754Z,14.43
2022-10-23T23:11:14.106Z,14.30
2022-10-23T23:13:42.914Z,14.19
2022-10-23T23:16:18.881Z,14.31
2022-10-23T23:18:48.702Z,14.29
2022-10-23T23:21:17.234Z,14.34
2022-10-23T23:23:45.541Z,14.38
2022-10-23T23:26:14.516Z,14.31
2022-10-23T23:28:42.646Z,14.30
2022-10-23T23:31:13.471Z,14.30
2022-10-23T23:33:41.357Z,14.33
2022-10-23T23:36:13.381Z,14.39
2022-10-23T23:38:41.411Z,14.46
2022-10-23T23:41:13.322Z,14.45
2022-10-23T23:43:41.495Z,14.51
2022-10-23T23:46:09.563Z,14.54
2022-10-23T23:48:37.803Z,14.59
2022-10-23T23:51:06.492Z,14.57
2022-10-23T23:53:35.723Z,14.56
2022-10-23T23:56:03.608Z,14.60
2022-10-23T23:58:31.533Z,14.60
